createdAt,value
2022-08-21T00:00:28.439Z,13.26
2022-08-21T00:03:04.019Z,13.12
2022-08-21T00:05:32.986Z,13.18
2022-08-21T00:07:59.987Z,13.18
2022-08-21T00:10:26.993Z,13.18
2022-08-21T00:12:53.667Z,13.15
2022-08-21T00:15:25.353Z,12.99
2022-08-21T00:17:52.015Z,13.12
2022-08-21T00:20:18.776Z,13.07
2022-08-21T00:22:46.102Z,13.05
2022-08-21T00:25:14.262Z,13.01
2022-08-21T00:27:43.574Z,12.95
2022-08-21T00:30:11.958Z,12.92
2022-08-21T00:32:51.179Z,12.87
2022-08-21T00:35:22.255Z,12.80
2022-08-21T00:37:49.088Z,12.79
2022-08-21T00:40:19.695Z,12.79
2022-08-21T00:42:53.521Z,12.74
2022-08-21T00:45:24.752Z,12.63
2022-08-21T00:47:52.851Z,12.62
2022-08-21T00:50:21.509Z,12.64
2022-08-21T00:52:49.690Z,12.61
2022-08-21T00:55:17.729Z,12.56
2022-08-21T00:57:48.668Z,12.50
2022-08-21T01:00:30.609Z,12.48
2022-08-21T01:02:59.387Z,12.30
2022-08-21T01:05:26.367Z,12.42
2022-08-21T01:07:53.164Z,12.37
2022-08-21T01:10:24.507Z,12.39
2022-08-21T01:12:54.735Z,12.35
2022-08-21T01:15:24.199Z,12.28
2022-08-21T01:17:52.176Z,12.25
2022-08-21T01:20:20.193Z,12.25
2022-08-21T01:22:46.869Z,12.22
2022-08-21T01:25:16.264Z,12.20
2022-08-21T01:27:45.112Z,12.19
2022-08-21T01:30:15.836Z,12.15
2022-08-21T01:32:43.271Z,11.99
2022-08-21T01:35:13.143Z,12.12
2022-08-21T01:37:40.863Z,12.12
2022-08-21T01:40:09.200Z,12.10
2022-08-21T01:42:37.153Z,12.08
2022-08-21T01:45:05.250Z,12.06
2022-08-21T01:47:31.968Z,12.08
2022-08-21T01:49:58.772Z,11.97
2022-08-21T01:52:25.517Z,12.07
2022-08-21T01:54:55.462Z,12.08
2022-08-21T01:57:26.279Z,12.06
2022-08-21T01:59:53.421Z,11.89
2022-08-21T02:02:20.300Z,11.93
2022-08-21T02:04:47.186Z,12.03
2022-08-21T02:07:13.875Z,12.10
2022-08-21T02:09:43.172Z,12.05
2022-08-21T02:12:13.203Z,12.15
2022-08-21T02:14:39.821Z,12.20
2022-08-21T02:17:09.398Z,12.09
2022-08-21T02:19:41.055Z,12.20
2022-08-21T02:22:11.768Z,12.28
2022-08-21T02:24:54.605Z,12.27
2022-08-21T02:27:27.575Z,12.37
2022-08-21T02:29:58.167Z,12.44
2022-08-21T02:32:26.767Z,12.49
2022-08-21T02:34:54.692Z,12.54
2022-08-21T02:37:23.999Z,12.60
2022-08-21T02:39:51.038Z,12.64
2022-08-21T02:42:18.656Z,12.66
2022-08-21T02:44:45.259Z,12.71
2022-08-21T02:47:11.964Z,12.74
2022-08-21T02:49:38.611Z,12.71
2022-08-21T02:52:07.027Z,12.76
2022-08-21T02:54:35.355Z,12.83
2022-08-21T02:57:02.037Z,12.84
2022-08-21T02:59:28.659Z,12.90
2022-08-21T03:01:56.543Z,12.95
2022-08-21T03:04:23.583Z,13.03
2022-08-21T03:06:50.252Z,13.03
2022-08-21T03:09:16.860Z,13.12
2022-08-21T03:11:44.293Z,13.18
2022-08-21T03:14:10.930Z,13.15
2022-08-21T03:16:37.675Z,13.24
2022-08-21T03:19:04.528Z,13.30
2022-08-21T03:21:31.432Z,13.15
2022-08-21T03:23:58.061Z,13.38
2022-08-21T03:26:26.229Z,13.45
2022-08-21T03:28:54.529Z,13.46
2022-08-21T03:31:22.579Z,13.49
2022-08-21T03:33:49.289Z,13.54
2022-08-21T03:36:16.780Z,13.62
2022-08-21T03:38:43.456Z,13.65
2022-08-21T03:41:10.205Z,13.67
2022-08-21T03:43:37.005Z,13.77
2022-08-21T03:46:05.060Z,13.83
2022-08-21T03:48:36.107Z,13.85
2022-08-21T03:51:03.275Z,13.96
2022-08-21T03:53:31.232Z,14.02
2022-08-21T03:55:58.714Z,13.98
2022-08-21T03:58:28.344Z,14.14
2022-08-21T04:00:57.751Z,14.17
2022-08-21T04:03:26.391Z,14.27
2022-08-21T04:05:53.206Z,14.29
2022-08-21T04:08:20.203Z,14.38
2022-08-21T04:10:52.127Z,14.16
2022-08-21T04:13:19.415Z,14.44
2022-08-21T17:13:28.591Z,23.96
2022-08-21T17:15:55.306Z,23.90
2022-08-21T17:18:24.593Z,23.84
2022-08-21T17:20:54.476Z,23.78
2022-08-21T17:23:21.722Z,23.78
2022-08-21T17:25:51.172Z,23.73
2022-08-21T17:28:28.011Z,23.76
2022-08-21T17:30:57.643Z,23.79
2022-08-21T17:33:26.443Z,23.81
2022-08-21T17:35:55.125Z,23.72
2022-08-21T17:38:21.753Z,23.75
2022-08-21T17:40:49.216Z,23.67
2022-08-21T17:43:15.987Z,23.68
2022-08-21T17:45:44.883Z,23.62
2022-08-21T17:48:12.135Z,23.62
2022-08-21T17:50:39.612Z,23.53
2022-08-21T17:53:06.679Z,23.37
2022-08-21T17:55:34.133Z,23.16
2022-08-21T17:58:02.434Z,23.44
2022-08-21T18:00:30.451Z,23.32
2022-08-21T18:03:09.691Z,23.31
2022-08-21T18:05:36.378Z,23.25
2022-08-21T18:08:03.341Z,23.15
2022-08-21T18:10:30.714Z,23.13
2022-08-21T18:12:58.473Z,23.08
2022-08-21T18:15:25.287Z,23.01
2022-08-21T18:17:52.937Z,22.93
2022-08-21T18:20:22.998Z,22.93
2022-08-21T18:22:50.043Z,22.84
2022-08-21T18:27:46.408Z,22.71
2022-08-21T18:30:20.673Z,22.66
2022-08-21T18:32:48.497Z,22.64
2022-08-21T18:35:16.357Z,22.58
2022-08-21T18:37:44.025Z,22.58
2022-08-21T18:40:10.967Z,22.52
2022-08-21T18:42:58.343Z,22.48
2022-08-21T18:45:25.848Z,22.28
2022-08-21T18:47:54.787Z,22.08
2022-08-21T18:50:25.466Z,22.33
2022-08-21T18:52:54.516Z,22.28
2022-08-21T18:55:24.458Z,22.17
2022-08-21T18:57:52.534Z,22.18
2022-08-21T19:00:31.554Z,22.10
2022-08-21T19:02:58.546Z,22.02
2022-08-21T19:05:26.259Z,21.95
2022-08-21T19:07:55.930Z,21.95
2022-08-21T19:10:27.928Z,21.87
2022-08-21T19:13:13.955Z,21.82
2022-08-21T19:15:43.355Z,21.81
2022-08-21T19:18:13.578Z,21.76
2022-08-21T19:20:42.898Z,21.73
2022-08-21T19:23:12.516Z,21.72
2022-08-21T19:25:41.914Z,21.65
2022-08-21T19:28:13.852Z,21.55
2022-08-21T19:30:43.189Z,21.55
2022-08-21T19:33:23.723Z,21.50
2022-08-21T19:36:10.343Z,21.42
2022-08-21T19:38:38.639Z,21.36
2022-08-21T19:41:09.423Z,21.34
2022-08-21T19:43:45.425Z,21.28
2022-08-21T19:46:15.613Z,21.08
2022-08-21T19:48:46.779Z,21.19
2022-08-21T19:51:13.911Z,21.15
2022-08-21T19:53:40.621Z,21.12
2022-08-21T19:56:12.258Z,20.86
2022-08-21T19:58:41.180Z,20.96
2022-08-21T20:01:11.554Z,20.85
2022-08-21T20:06:34.829Z,20.73
2022-08-21T20:09:02.397Z,20.69
2022-08-21T20:11:49.058Z,20.63
2022-08-21T20:14:19.784Z,20.56
2022-08-21T20:16:48.647Z,20.29
2022-08-21T20:19:19.995Z,20.43
2022-08-21T20:21:46.963Z,20.32
2022-08-21T20:27:06.135Z,20.25
2022-08-21T20:29:36.230Z,20.21
2022-08-21T20:32:08.085Z,20.06
2022-08-21T20:34:39.942Z,20.06
2022-08-21T20:37:06.598Z,19.98
2022-08-21T20:39:36.317Z,19.96
2022-08-21T20:42:04.718Z,19.87
2022-08-21T20:44:35.785Z,19.79
2022-08-21T20:47:09.231Z,19.72
2022-08-21T20:49:45.851Z,19.72
2022-08-21T20:52:16.798Z,19.64
2022-08-21T20:54:56.158Z,19.60
2022-08-21T20:57:33.932Z,19.26
2022-08-21T21:00:07.483Z,19.47
2022-08-21T21:02:51.840Z,19.45
2022-08-21T21:05:25.839Z,19.47
2022-08-21T21:08:00.502Z,19.46
2022-08-21T21:10:52.001Z,19.42
2022-08-21T21:13:44.353Z,19.40
2022-08-21T21:16:24.282Z,19.32
2022-08-21T21:19:05.980Z,19.30
2022-08-21T21:24:52.087Z,19.21
2022-08-21T21:27:48.930Z,19.22
2022-08-21T21:30:21.119Z,19.11
2022-08-21T21:32:48.060Z,18.99
2022-08-21T21:35:32.560Z,19.06
2022-08-21T21:38:51.942Z,19.01
2022-08-21T21:41:56.769Z,18.92
2022-08-21T21:44:54.016Z,18.89
2022-08-21T21:47:56.836Z,18.81
2022-08-21T21:50:27.905Z,18.79
2022-08-21T22:19:06.570Z,18.32
2022-08-21T22:21:39.824Z,18.22
2022-08-21T22:24:14.447Z,18.20
2022-08-21T22:26:48.441Z,18.23
2022-08-21T22:29:21.947Z,18.21
2022-08-21T22:32:07.188Z,18.19
2022-08-21T22:34:34.215Z,18.13
2022-08-21T22:37:05.496Z,18.13
2022-08-21T22:39:42.246Z,18.16
2022-08-21T22:42:13.947Z,18.07
2022-08-21T22:44:51.783Z,18.07
2022-08-21T22:47:26.632Z,18.08
2022-08-21T22:49:54.917Z,18.05
2022-08-21T22:52:26.739Z,18.08
2022-08-21T22:54:57.717Z,18.07
2022-08-21T22:57:35.320Z,18.01
2022-08-21T23:00:07.617Z,18.00
2022-08-21T23:02:55.702Z,17.83
2022-08-21T23:05:34.798Z,17.89
2022-08-21T23:08:23.927Z,17.92
2022-08-21T23:10:57.294Z,17.86
2022-08-21T23:13:24.300Z,17.84
2022-08-21T23:15:59.490Z,17.87
2022-08-21T23:18:44.793Z,17.84
2022-08-21T23:21:43.145Z,17.83
2022-08-21T23:24:34.600Z,17.83
2022-08-21T23:27:27.022Z,17.80
2022-08-21T23:33:16.220Z,17.74
2022-08-21T23:36:10.397Z,17.72
2022-08-21T23:38:56.325Z,17.69
2022-08-21T23:41:39.079Z,17.63
2022-08-21T23:44:15.123Z,17.63
2022-08-21T23:47:02.955Z,17.61
2022-08-21T23:49:43.898Z,17.58
2022-08-21T23:52:42.832Z,17.56
2022-08-21T23:55:15.411Z,17.48
2022-08-21T23:57:58.477Z,17.45
